Time;durP1;ratioP1;P1;durP2;ratioP2;P2;SDS_P1;SDS_P2;PMS_P1;PMS_P2;Temp;Humidity;BMP_temperature;BMP_pressure;BME280_temperature;BME280_humidity;BME280_pressure;Samples;Min_cycle;Max_cycle;Signal;HPM_P1;HPM_P2
2023/10/29 00:01:09;;;;;;;6.72;3.55;;;;;;;12.39;79.50;96942.38;5073188;28;20032;-71
2023/10/29 00:03:34;;;;;;;7.15;3.30;;;;;;;12.34;79.36;96942.44;5090945;28;20045;-71
2023/10/29 00:06:00;;;;;;;6.95;3.58;;;;;;;12.43;79.53;96964.22;5071190;28;20044;-72
2023/10/29 00:08:25;;;;;;;5.82;3.15;;;;;;;12.37;79.20;96960.75;5054897;28;20499;-72
2023/10/29 00:10:50;;;;;;;9.50;3.63;;;;;;;12.38;79.52;96962.38;5066372;28;20081;-72
2023/10/29 00:13:16;;;;;;;5.75;3.40;;;;;;;12.38;79.26;96967.78;5070715;28;20024;-71
2023/10/29 00:15:41;;;;;;;8.43;3.20;;;;;;;12.29;79.53;96964.09;5051950;28;20041;-72
2023/10/29 00:18:12;;;;;;;6.82;3.25;;;;;;;12.32;79.88;96965.41;5060203;28;20025;-71
2023/10/29 00:20:38;;;;;;;5.82;3.38;;;;;;;12.34;80.32;96971.34;5071225;28;20067;-72
2023/10/29 00:23:04;;;;;;;7.07;3.58;;;;;;;12.27;80.09;96970.88;5074016;28;20019;-72
2023/10/29 00:25:29;;;;;;;7.03;3.33;;;;;;;12.29;80.37;96974.88;5063752;28;20032;-71
2023/10/29 00:27:55;;;;;;;5.97;3.20;;;;;;;12.22;80.39;96973.59;5081260;28;20024;-71
2023/10/29 00:30:20;;;;;;;6.05;3.28;;;;;;;12.22;80.58;96977.13;5046855;28;20028;-72
2023/10/29 00:32:46;;;;;;;9.05;3.47;;;;;;;12.23;81.04;96981.41;5062851;28;20036;-72
2023/10/29 00:35:11;;;;;;;7.72;3.60;;;;;;;12.23;80.90;96976.00;5069702;28;20039;-71
2023/10/29 00:37:37;;;;;;;6.65;4.00;;;;;;;12.17;81.08;96952.88;5039859;28;20506;-71
2023/10/29 00:40:04;;;;;;;8.57;4.10;;;;;;;12.24;81.05;96960.63;5039878;28;20040;-71
2023/10/29 00:42:30;;;;;;;6.50;4.20;;;;;;;12.20;81.30;96955.00;5056210;28;20021;-70
2023/10/29 00:44:55;;;;;;;9.45;4.20;;;;;;;12.19;81.48;96952.56;5039861;28;20032;-70
2023/10/29 00:47:21;;;;;;;9.40;3.90;;;;;;;12.12;81.61;96952.91;5056197;28;20020;-70
2023/10/29 00:49:46;;;;;;;7.20;3.70;;;;;;;12.12;81.14;96939.41;5056398;28;20107;-70
2023/10/29 00:52:13;;;;;;;7.88;3.92;;;;;;;12.12;81.39;96942.13;5056274;28;20038;-70
2023/10/29 00:54:38;;;;;;;8.38;3.85;;;;;;;12.09;81.77;96945.38;5039484;28;20116;-71
2023/10/29 00:57:04;;;;;;;7.60;3.40;;;;;;;12.00;81.25;96933.59;5039594;28;20507;-71
2023/10/29 00:59:30;;;;;;;6.03;3.15;;;;;;;12.11;80.99;96945.13;5039498;28;20191;-71
2023/10/29 01:01:56;;;;;;;7.55;3.35;;;;;;;12.06;81.77;96942.47;5073856;28;20021;-71
2023/10/29 01:04:22;;;;;;;5.70;3.30;;;;;;;12.07;81.91;96950.25;5055602;28;20420;-72
2023/10/29 01:06:48;;;;;;;6.57;3.60;;;;;;;11.99;81.31;96937.41;5074073;28;20032;-72
2023/10/29 01:09:14;;;;;;;5.63;3.20;;;;;;;12.06;81.46;96948.66;5064204;28;20077;-70
2023/10/29 01:11:40;;;;;;;6.65;3.30;;;;;;;11.99;81.79;96936.59;5072328;22;20030;-74
2023/10/29 01:14:05;;;;;;;10.57;3.15;;;;;;;11.96;81.97;96926.34;4977652;28;20038;-72
2023/10/29 01:16:30;;;;;;;6.80;3.35;;;;;;;12.03;81.53;96935.72;5026942;28;20110;-72
2023/10/29 01:18:56;;;;;;;6.38;3.00;;;;;;;11.99;81.50;96921.22;4979549;28;20085;-73
2023/10/29 01:21:23;;;;;;;5.13;3.30;;;;;;;11.99;81.77;96923.91;4975376;28;20106;-72
2023/10/29 01:23:48;;;;;;;4.70;3.03;;;;;;;11.89;81.14;96918.59;4955965;28;20584;-72
2023/10/29 01:26:13;;;;;;;8.00;3.33;;;;;;;11.97;81.30;96922.59;4972333;28;20109;-72
2023/10/29 01:28:39;;;;;;;4.75;2.90;;;;;;;11.93;81.37;96922.31;4990667;28;20092;-70
2023/10/29 01:31:06;;;;;;;6.25;3.20;;;;;;;11.98;81.05;96924.97;4974338;28;20496;-71
2023/10/29 01:33:31;;;;;;;5.22;2.85;;;;;;;12.05;80.85;96930.84;4973739;28;20035;-69
2023/10/29 01:35:56;;;;;;;7.43;3.20;;;;;;;12.00;80.87;96922.81;4990911;28;20030;-70
2023/10/29 01:38:22;;;;;;;3.85;2.65;;;;;;;12.00;80.82;96913.91;4964678;28;20485;-72
2023/10/29 01:40:48;;;;;;;7.05;2.80;;;;;;;11.97;80.61;96896.38;4970884;28;20027;-69
2023/10/29 01:43:13;;;;;;;5.15;2.55;;;;;;;11.98;80.51;96903.41;5074040;28;20034;-70
2023/10/29 01:45:39;;;;;;;6.18;2.60;;;;;;;12.03;80.28;96902.53;4973562;28;20018;-71
2023/10/29 01:48:04;;;;;;;9.43;3.05;;;;;;;12.06;79.55;96908.19;4973882;28;20041;-72
2023/10/29 01:50:30;;;;;;;4.13;2.42;;;;;;;11.99;79.51;96894.22;5018402;28;20019;-73
2023/10/29 01:52:55;;;;;;;5.60;2.50;;;;;;;12.07;79.41;96906.28;4973694;28;20070;-69
2023/10/29 01:55:21;;;;;;;6.93;2.72;;;;;;;12.09;79.34;96907.59;4974059;28;20118;-73
2023/10/29 01:57:46;;;;;;;3.67;2.33;;;;;;;12.13;79.17;96903.25;4973994;28;20038;-70
2023/10/29 02:00:12;;;;;;;5.00;2.60;;;;;;;12.07;79.09;96890.88;4989820;28;20034;-73
2023/10/29 02:02:38;;;;;;;4.80;2.50;;;;;;;12.02;78.85;96885.53;4990589;28;20062;-70
2023/10/29 02:05:04;;;;;;;4.93;2.55;;;;;;;12.07;78.34;96893.59;5048401;28;20022;-69
2023/10/29 02:07:30;;;;;;;3.72;2.30;;;;;;;12.16;78.44;96899.97;4974207;28;20433;-73
2023/10/29 02:09:55;;;;;;;5.32;2.50;;;;;;;12.17;78.59;96912.38;5059129;28;20029;-73
2023/10/29 02:12:21;;;;;;;7.45;2.90;;;;;;;12.13;78.23;96894.34;4969733;28;20039;-73
2023/10/29 02:14:46;;;;;;;5.47;2.25;;;;;;;12.15;78.09;96886.78;4977941;28;20537;-73
2023/10/29 02:17:12;;;;;;;4.78;2.67;;;;;;;12.12;78.02;96888.16;4974412;28;20095;-71
2023/10/29 02:19:37;;;;;;;5.18;2.40;;;;;;;12.15;77.59;96884.88;4979372;28;20573;-74
2023/10/29 02:22:03;;;;;;;5.00;2.72;;;;;;;12.08;77.38;96872.81;4981612;28;20037;-71
2023/10/29 02:24:28;;;;;;;4.78;2.45;;;;;;;12.20;76.81;96879.44;4974405;28;20504;-70
2023/10/29 02:26:54;;;;;;;4.55;2.53;;;;;;;12.16;76.95;96877.59;4991245;28;20030;-71
2023/10/29 02:29:19;;;;;;;5.85;2.78;;;;;;;12.05;76.91;96860.69;4980072;28;20519;-73
2023/10/29 02:31:45;;;;;;;3.75;2.38;;;;;;;12.15;76.79;96866.00;5054876;28;20073;-70
2023/10/29 02:34:12;;;;;;;3.58;2.33;;;;;;;12.13;77.07;96862.78;4955229;28;20027;-73
2023/10/29 02:36:38;;;;;;;7.03;2.50;;;;;;;12.15;76.98;96876.78;5054810;28;20035;-70
2023/10/29 02:39:03;;;;;;;4.80;2.30;;;;;;;12.18;77.02;96880.81;4974112;28;20134;-74
2023/10/29 02:41:30;;;;;;;4.43;2.20;;;;;;;12.12;76.69;96871.94;4991220;28;20030;-73
2023/10/29 02:43:58;;;;;;;5.70;2.50;;;;;;;12.17;76.57;96873.78;4972286;28;20031;-73
2023/10/29 02:46:26;;;;;;;5.25;2.47;;;;;;;12.16;76.73;96872.97;4973445;28;20057;-71
2023/10/29 02:48:52;;;;;;;4.97;2.28;;;;;;;12.04;76.71;96859.06;4970243;28;20114;-71
2023/10/29 02:51:17;;;;;;;5.47;2.47;;;;;;;12.15;76.54;96871.38;4953909;28;20046;-74
2023/10/29 02:53:43;;;;;;;4.03;2.40;;;;;;;12.16;76.21;96870.28;4969622;28;20031;-71
2023/10/29 02:56:09;;;;;;;4.68;2.30;;;;;;;12.14;76.55;96872.47;4953825;28;20087;-72
2023/10/29 02:58:35;;;;;;;6.70;2.40;;;;;;;12.14;76.88;96869.75;4957440;28;20030;-71
2023/10/29 03:01:04;;;;;;;4.05;2.20;;;;;;;12.17;76.62;96874.59;5074076;28;20030;-72
2023/10/29 03:03:30;;;;;;;5.88;2.40;;;;;;;12.10;76.67;96857.13;4990559;28;20018;-70
2023/10/29 03:05:56;;;;;;;5.32;2.42;;;;;;;12.15;76.22;96868.69;4984551;28;20054;-66
2023/10/29 03:08:21;;;;;;;4.18;2.10;;;;;;;12.11;76.74;96859.53;5040853;28;20374;-68
2023/10/29 03:10:49;;;;;;;4.28;2.80;;;;;;;12.10;76.81;96857.94;4990444;28;20117;-71
2023/10/29 03:13:15;;;;;;;4.10;2.05;;;;;;;12.18;76.47;96868.09;4972665;28;20042;-70
2023/10/29 03:15:41;;;;;;;5.40;2.40;;;;;;;12.18;76.59;96876.19;5003038;28;20161;-69
2023/10/29 03:18:07;;;;;;;7.05;2.40;;;;;;;12.17;76.72;96863.81;4977760;28;20659;-67
2023/10/29 03:20:32;;;;;;;3.22;2.17;;;;;;;12.17;76.71;96873.78;4956702;28;20486;-66
2023/10/29 03:22:58;;;;;;;5.65;2.22;;;;;;;12.19;77.12;96866.22;4985795;28;20041;-68
2023/10/29 03:25:24;;;;;;;4.60;2.20;;;;;;;12.18;77.77;96875.41;4966345;28;20493;-67
2023/10/29 03:27:50;;;;;;;4.35;2.28;;;;;;;12.08;77.25;96859.31;5016956;28;20370;-69
2023/10/29 03:30:15;;;;;;;4.93;2.28;;;;;;;12.18;77.81;96857.31;5045771;28;20045;-69
2023/10/29 03:32:41;;;;;;;4.13;2.00;;;;;;;12.16;77.42;96834.41;4959815;28;20178;-68
2023/10/29 03:35:06;;;;;;;4.65;2.90;;;;;;;12.14;77.96;96821.19;4965903;28;20126;-68
2023/10/29 03:37:32;;;;;;;3.95;2.55;;;;;;;12.17;77.79;96836.81;4982275;28;20113;-69
2023/10/29 03:39:58;;;;;;;4.75;2.13;;;;;;;12.13;77.15;96835.78;5051110;28;20189;-71
2023/10/29 03:42:23;;;;;;;5.75;2.45;;;;;;;12.23;77.28;96849.16;5049254;28;20092;-70
2023/10/29 03:44:49;;;;;;;3.35;2.00;;;;;;;12.22;77.19;96844.03;5056428;28;20030;-71
2023/10/29 03:47:14;;;;;;;3.72;2.13;;;;;;;12.22;76.79;96847.56;4972091;28;20440;-71
2023/10/29 03:49:41;;;;;;;4.85;2.20;;;;;;;12.26;76.38;96843.19;4989089;28;20039;-69
2023/10/29 03:52:08;;;;;;;4.50;2.28;;;;;;;12.17;76.50;96827.91;4972340;28;20192;-71
2023/10/29 03:54:34;;;;;;;4.35;2.05;;;;;;;12.22;76.34;96828.66;4989886;28;20545;-71
2023/10/29 03:56:59;;;;;;;3.78;1.98;;;;;;;12.27;76.65;96825.09;4972718;28;20359;-73
2023/10/29 03:59:24;;;;;;;4.30;2.10;;;;;;;12.29;76.25;96823.72;5063123;28;20095;-72
2023/10/29 04:01:50;;;;;;;2.78;2.00;;;;;;;12.35;75.48;96822.56;4975196;28;20069;-72
2023/10/29 04:04:16;;;;;;;4.05;1.88;;;;;;;12.33;75.79;96813.94;4992268;28;20493;-72
2023/10/29 04:06:42;;;;;;;4.35;2.35;;;;;;;12.39;75.21;96812.78;5064128;28;20026;-71
2023/10/29 04:09:08;;;;;;;5.43;2.15;;;;;;;12.37;75.05;96806.88;4988474;28;20043;-71
2023/10/29 04:11:34;;;;;;;3.97;1.95;;;;;;;12.33;74.26;96781.56;4971681;28;20633;-71
2023/10/29 04:13:59;;;;;;;3.50;2.25;;;;;;;12.44;74.53;96787.59;4974546;28;20034;-71
2023/10/29 04:16:24;;;;;;;4.40;1.80;;;;;;;12.37;73.93;96766.38;4975439;28;20019;-71
2023/10/29 04:18:50;;;;;;;5.47;1.90;;;;;;;12.45;73.46;96773.84;4987997;28;20409;-72
2023/10/29 04:21:15;;;;;;;4.03;1.80;;;;;;;12.47;73.76;96771.63;4975689;28;20030;-72
2023/10/29 04:23:40;;;;;;;4.45;1.95;;;;;;;12.48;73.53;96773.22;4991891;28;20038;-72
2023/10/29 04:26:06;;;;;;;2.38;1.85;;;;;;;12.51;73.01;96761.03;5076883;28;20036;-72
2023/10/29 04:28:34;;;;;;;3.58;1.80;;;;;;;12.53;72.60;96758.06;4974548;28;20034;-70
2023/10/29 04:31:00;;;;;;;5.68;2.08;;;;;;;12.53;72.93;96764.28;5042982;28;20397;-69
2023/10/29 04:33:25;;;;;;;2.70;1.90;;;;;;;12.54;72.64;96765.06;4974516;28;20038;-70
2023/10/29 04:35:51;;;;;;;2.30;1.80;;;;;;;12.56;72.59;96752.06;4992279;28;20500;-71
2023/10/29 04:38:16;;;;;;;2.47;1.60;;;;;;;12.53;72.65;96749.97;4986212;28;20043;-71
2023/10/29 04:40:41;;;;;;;3.85;1.67;;;;;;;12.56;71.81;96757.47;4955761;28;20071;-71
2023/10/29 04:43:07;;;;;;;3.03;1.67;;;;;;;12.56;71.86;96752.06;4972497;28;20111;-71
2023/10/29 04:45:32;;;;;;;3.75;1.83;;;;;;;12.45;71.97;96727.94;5056817;28;20057;-71
2023/10/29 04:47:58;;;;;;;4.07;1.70;;;;;;;12.59;72.05;96746.91;4999922;28;20039;-71
2023/10/29 04:50:23;;;;;;;2.05;1.63;;;;;;;12.64;71.78;96765.75;4972589;28;20416;-71
2023/10/29 04:52:49;;;;;;;3.97;1.58;;;;;;;12.65;71.34;96771.94;4972414;28;20047;-71
2023/10/29 04:55:15;;;;;;;4.63;1.90;;;;;;;12.62;71.25;96772.53;5012103;28;20035;-71
2023/10/29 04:57:40;;;;;;;2.00;1.40;;;;;;;12.67;71.71;96778.63;4972805;28;20482;-71
2023/10/29 05:00:09;;;;;;;5.13;1.65;;;;;;;12.67;71.53;96765.13;4972907;28;20029;-71
2023/10/29 05:02:35;;;;;;;2.30;1.60;;;;;;;12.59;71.68;96762.28;5055695;28;20038;-71
2023/10/29 05:05:03;;;;;;;3.70;1.83;;;;;;;12.63;71.94;96774.09;4973326;28;20496;-70
2023/10/29 05:07:30;;;;;;;3.05;1.70;;;;;;;12.65;71.46;96766.53;4957160;28;20039;-70
2023/10/29 05:09:56;;;;;;;4.38;1.80;;;;;;;12.62;71.81;96756.31;4974645;28;20081;-70
2023/10/29 05:12:22;;;;;;;2.85;1.70;;;;;;;12.59;71.57;96762.28;4954972;28;20032;-69
2023/10/29 05:14:50;;;;;;;4.22;1.60;;;;;;;12.67;71.30;96758.94;4978852;28;20534;-70
2023/10/29 05:17:16;;;;;;;2.90;1.60;;;;;;;12.63;71.57;96753.31;4971546;28;20084;-70
2023/10/29 05:19:42;;;;;;;2.42;1.65;;;;;;;12.58;72.03;96763.41;4983335;28;20500;-70
2023/10/29 05:22:07;;;;;;;6.22;2.22;;;;;;;12.46;72.02;96748.41;4982236;28;20030;-70
2023/10/29 05:24:33;;;;;;;2.63;1.50;;;;;;;12.50;71.98;96754.06;4990816;28;20428;-70
2023/10/29 05:26:58;;;;;;;2.40;1.52;;;;;;;12.44;72.10;96750.63;4991223;28;20031;-70
2023/10/29 05:29:24;;;;;;;3.75;1.65;;;;;;;12.52;72.12;96745.66;4989823;28;20034;-70
2023/10/29 05:31:49;;;;;;;3.20;1.70;;;;;;;12.46;71.77;96742.25;5075070;28;20039;-69
2023/10/29 05:34:15;;;;;;;3.55;1.60;;;;;;;12.38;71.99;96735.59;5074943;28;20037;-70
2023/10/29 05:36:41;;;;;;;2.15;1.67;;;;;;;12.28;72.50;96734.91;5002558;28;20414;-70
2023/10/29 05:39:07;;;;;;;3.40;1.90;;;;;;;12.32;72.04;96752.94;4945083;28;20394;-69
2023/10/29 05:41:32;;;;;;;5.60;2.28;;;;;;;12.28;72.78;96762.72;4989897;28;20107;-69
2023/10/29 05:43:58;;;;;;;3.75;1.67;;;;;;;12.24;72.11;96748.19;4990565;28;20031;-70
2023/10/29 05:46:23;;;;;;;2.65;1.63;;;;;;;12.30;72.66;96760.53;4991086;28;20121;-70
2023/10/29 05:48:50;;;;;;;2.63;1.63;;;;;;;12.22;72.56;96745.00;4989873;28;20050;-70
2023/10/29 05:51:19;;;;;;;16.70;9.55;;;;;;;12.27;72.24;96744.94;4989785;28;20597;-71
2023/10/29 05:53:46;;;;;;;4.70;2.10;;;;;;;12.32;72.05;96752.94;4973303;28;20041;-70
2023/10/29 05:56:12;;;;;;;3.13;2.17;;;;;;;12.27;72.31;96744.94;4973762;28;20083;-70
2023/10/29 05:58:37;;;;;;;5.57;2.58;;;;;;;12.26;72.22;96743.31;4990043;28;20370;-70
2023/10/29 06:01:03;;;;;;;3.95;1.85;;;;;;;12.26;72.10;96748.72;4989657;28;20060;-69
2023/10/29 06:03:28;;;;;;;2.08;1.63;;;;;;;12.18;72.30;96741.25;4989340;28;20030;-69
2023/10/29 06:05:54;;;;;;;2.85;1.67;;;;;;;12.25;72.38;96763.28;4990022;28;20049;-72
2023/10/29 06:08:21;;;;;;;2.50;2.30;;;;;;;12.27;71.82;96755.72;4978956;28;20029;-70
2023/10/29 06:10:50;;;;;;;2.50;1.60;;;;;;;12.23;71.95;96760.06;5053875;28;20085;-69
2023/10/29 06:13:16;;;;;;;2.53;1.77;;;;;;;12.13;72.18;96738.63;4970217;28;20035;-70
2023/10/29 06:15:41;;;;;;;2.85;1.65;;;;;;;12.28;72.18;96760.00;5037381;28;20041;-70
2023/10/29 06:18:07;;;;;;;4.25;1.63;;;;;;;12.31;71.29;96762.16;4984403;28;20022;-71
2023/10/29 06:20:34;;;;;;;2.78;1.63;;;;;;;12.36;71.66;96759.38;4973407;28;20117;-71
2023/10/29 06:22:59;;;;;;;3.08;1.90;;;;;;;12.38;71.60;96761.78;4968442;28;20027;-69
2023/10/29 06:25:26;;;;;;;2.83;2.40;;;;;;;12.38;71.03;96767.19;4985988;28;20482;-69
2023/10/29 06:27:51;;;;;;;3.25;2.20;;;;;;;12.36;71.09;96764.78;4967034;28;20026;-69
2023/10/29 06:30:17;;;;;;;4.95;3.70;;;;;;;12.43;71.20;96781.44;4990672;28;20100;-69
2023/10/29 06:32:43;;;;;;;28.70;16.40;;;;;;;12.46;71.23;96785.44;4983140;28;20033;-69
2023/10/29 06:35:08;;;;;;;22.05;14.57;;;;;;;12.39;71.18;96774.97;4990137;28;20489;-69
2023/10/29 06:37:34;;;;;;;15.52;8.68;;;;;;;12.44;71.37;96793.81;4972809;28;20034;-70
2023/10/29 06:39:59;;;;;;;9.95;5.28;;;;;;;12.41;71.06;96799.81;5074172;28;20089;-69
2023/10/29 06:42:25;;;;;;;33.22;19.38;;;;;;;12.47;71.19;96798.66;5047163;28;20619;-70
2023/10/29 06:44:50;;;;;;;18.33;10.50;;;;;;;12.40;70.60;96787.41;4983663;28;20050;-70
2023/10/29 06:47:15;;;;;;;66.25;35.72;;;;;;;12.44;70.99;96783.00;4975884;28;20027;-70
2023/10/29 06:49:41;;;;;;;20.80;11.07;;;;;;;12.49;71.18;96791.06;4988843;28;20389;-70
2023/10/29 06:52:07;;;;;;;10.55;6.28;;;;;;;12.52;71.10;96788.84;4972486;28;20517;-70
2023/10/29 06:54:33;;;;;;;3.72;2.50;;;;;;;12.57;71.04;96802.28;4972462;28;20115;-69
2023/10/29 06:56:58;;;;;;;7.43;4.10;;;;;;;12.58;71.07;96809.31;4972497;28;20152;-69
2023/10/29 06:59:24;;;;;;;3.83;2.80;;;;;;;12.55;71.11;96821.50;5059949;28;20030;-69
2023/10/29 07:01:50;;;;;;;4.35;2.72;;;;;;;12.58;70.95;96820.91;4972412;28;20109;-70
2023/10/29 07:04:16;;;;;;;4.05;1.92;;;;;;;12.67;70.66;96850.78;5051222;28;20038;-69
2023/10/29 07:06:42;;;;;;;3.75;2.13;;;;;;;12.59;70.59;96851.41;4982359;28;20023;-70
2023/10/29 07:09:07;;;;;;;4.70;1.88;;;;;;;12.58;70.91;96868.72;4979395;28;20034;-70
2023/10/29 07:11:33;;;;;;;2.92;1.80;;;;;;;12.54;71.23;96894.69;4995640;23;20023;-72
2023/10/29 07:13:58;;;;;;;2.85;1.52;;;;;;;12.48;70.80;96881.25;5100308;28;20043;-72
2023/10/29 07:16:24;;;;;;;3.45;1.67;;;;;;;12.60;70.89;96883.56;5115260;27;20031;-72
2023/10/29 07:18:50;;;;;;;2.92;1.67;;;;;;;12.66;70.79;96871.59;5091442;28;20036;-72
2023/10/29 07:21:15;;;;;;;2.90;1.73;;;;;;;12.64;71.36;96894.56;5088170;28;20033;-72
2023/10/29 07:23:41;;;;;;;3.17;1.80;;;;;;;12.65;71.26;96890.78;5105627;28;20040;-72
2023/10/29 07:26:06;;;;;;;5.18;1.88;;;;;;;12.67;71.91;96881.28;5091682;28;20020;-72
2023/10/29 07:28:34;;;;;;;3.83;1.60;;;;;;;12.51;72.04;96849.38;5090268;28;20036;-72
2023/10/29 07:31:00;;;;;;;2.22;1.50;;;;;;;12.69;71.72;96840.50;5089893;28;20617;-72
2023/10/29 07:33:25;;;;;;;3.95;1.88;;;;;;;12.71;72.04;96824.78;5072975;28;20185;-72
2023/10/29 07:35:50;;;;;;;4.10;2.22;;;;;;;12.61;71.41;96835.72;5073045;28;20020;-72
2023/10/29 07:38:16;;;;;;;4.30;2.83;;;;;;;12.58;71.55;96836.31;5091339;28;20039;-72
2023/10/29 07:40:41;;;;;;;3.30;2.30;;;;;;;12.76;71.41;96857.94;5075714;28;20599;-72
2023/10/29 07:43:07;;;;;;;3.50;2.05;;;;;;;12.75;71.38;96852.81;5092740;28;20032;-72
2023/10/29 07:45:32;;;;;;;6.00;2.83;;;;;;;12.71;71.57;96866.13;5091473;28;20380;-72
2023/10/29 07:47:58;;;;;;;3.45;2.40;;;;;;;12.75;71.14;96852.81;5073149;28;20085;-72
2023/10/29 07:50:23;;;;;;;3.60;1.90;;;;;;;12.71;71.25;96835.59;5099424;28;20027;-71
2023/10/29 07:52:49;;;;;;;3.67;2.40;;;;;;;12.78;71.64;96853.06;5074858;28;20035;-75
2023/10/29 07:55:14;;;;;;;6.75;3.92;;;;;;;12.74;70.92;96868.22;5073273;28;20178;-72
2023/10/29 07:57:40;;;;;;;12.30;5.47;;;;;;;12.83;71.28;96860.28;5073248;28;20453;-72
2023/10/29 08:00:09;;;;;;;7.93;5.30;;;;;;;12.76;71.31;96876.06;5102632;28;20031;-73
2023/10/29 08:02:37;;;;;;;9.48;6.55;;;;;;;12.80;71.01;96877.88;5093702;28;20517;-73
2023/10/29 08:05:03;;;;;;;8.65;5.63;;;;;;;12.77;71.66;96899.25;5093175;28;20031;-72
2023/10/29 08:07:29;;;;;;;7.97;4.97;;;;;;;12.76;71.58;96919.28;5093185;28;20133;-72
2023/10/29 08:09:56;;;;;;;18.63;10.05;;;;;;;12.73;71.57;96936.88;5111477;28;20643;-72
2023/10/29 08:12:22;;;;;;;13.10;8.05;;;;;;;12.62;71.81;96929.97;5093283;28;20042;-73
2023/10/29 08:14:47;;;;;;;16.73;8.98;;;;;;;12.74;71.65;96926.88;5111432;28;20120;-72
2023/10/29 08:17:17;;;;;;;8.45;6.10;;;;;;;12.73;72.33;96938.75;5111498;28;20497;-73
2023/10/29 08:19:43;;;;;;;11.93;6.95;;;;;;;12.72;72.82;96929.06;5090574;28;20023;-73
2023/10/29 08:22:08;;;;;;;7.10;4.82;;;;;;;12.89;72.88;96942.88;5092711;28;20036;-72
2023/10/29 08:24:33;;;;;;;5.40;3.33;;;;;;;12.81;72.77;96921.91;5081840;28;20012;-73
2023/10/29 08:26:59;;;;;;;6.88;4.32;;;;;;;12.86;72.87;96913.75;5106987;28;20093;-72
2023/10/29 08:29:25;;;;;;;11.18;7.00;;;;;;;13.04;72.82;96931.88;5083869;28;20133;-72
2023/10/29 08:31:50;;;;;;;5.40;3.40;;;;;;;12.95;72.46;96929.00;5092077;28;20039;-72
2023/10/29 08:34:15;;;;;;;11.25;7.18;;;;;;;12.97;72.08;96926.03;5073842;28;20024;-72
2023/10/29 08:36:41;;;;;;;6.72;4.75;;;;;;;13.10;72.83;96930.75;5090309;28;20039;-72
2023/10/29 08:39:06;;;;;;;4.70;3.90;;;;;;;13.10;72.54;96931.56;5072430;28;20499;-72
2023/10/29 08:41:31;;;;;;;7.13;6.43;;;;;;;13.18;72.47;96943.63;5090488;28;20122;-72
2023/10/29 08:43:57;;;;;;;12.43;11.13;;;;;;;13.09;72.24;96950.78;5093974;28;20020;-72
2023/10/29 08:46:22;;;;;;;8.13;6.43;;;;;;;13.09;72.40;96967.00;5094615;28;20450;-72
2023/10/29 08:48:48;;;;;;;2.53;1.88;;;;;;;13.03;72.06;96970.81;5094443;28;20028;-72
2023/10/29 08:51:14;;;;;;;3.63;1.92;;;;;;;13.07;71.66;96974.56;5076043;28;20086;-72
2023/10/29 08:53:40;;;;;;;5.13;3.92;;;;;;;13.14;72.21;96985.81;5107044;28;20041;-72
2023/10/29 08:56:06;;;;;;;5.70;4.88;;;;;;;13.06;71.11;96975.66;5091546;28;20474;-72
2023/10/29 08:58:32;;;;;;;7.63;5.70;;;;;;;13.10;71.89;96995.63;5076045;28;20507;-73
2023/10/29 09:00:57;;;;;;;30.30;25.42;;;;;;;13.17;71.67;97006.88;5107776;28;20052;-73
2023/10/29 09:03:23;;;;;;;19.13;16.50;;;;;;;13.30;71.57;97003.47;5106388;28;20536;-71
2023/10/29 09:05:50;;;;;;;9.27;6.30;;;;;;;13.40;71.38;96999.81;5096345;28;20055;-73
2023/10/29 09:08:15;;;;;;;4.70;3.70;;;;;;;13.31;71.50;96979.94;5114571;28;20033;-72
2023/10/29 09:10:43;;;;;;;4.50;3.58;;;;;;;13.51;71.51;96998.59;5096179;28;20020;-73
2023/10/29 09:13:09;;;;;;;8.45;7.07;;;;;;;13.56;70.94;96996.59;5096121;28;20476;-74
2023/10/29 09:15:34;;;;;;;4.55;3.00;;;;;;;13.47;70.48;96982.13;5112940;28;20035;-74
2023/10/29 09:17:59;;;;;;;7.70;5.50;;;;;;;13.53;70.81;96989.09;5094845;28;20024;-72
2023/10/29 09:20:25;;;;;;;10.23;5.95;;;;;;;13.53;70.22;96982.88;5113408;28;20496;-71
2023/10/29 09:22:50;;;;;;;7.65;6.60;;;;;;;13.60;70.51;96986.00;5101421;28;20077;-73
2023/10/29 09:25:16;;;;;;;4.82;3.63;;;;;;;13.61;71.31;96995.72;5075860;28;20047;-73
2023/10/29 09:27:41;;;;;;;4.90;2.63;;;;;;;13.59;70.43;97004.13;5067437;28;20038;-73
2023/10/29 09:30:07;;;;;;;4.22;2.30;;;;;;;13.40;70.97;96994.41;5082398;28;20080;-73
2023/10/29 09:32:35;;;;;;;4.97;1.95;;;;;;;13.15;70.90;96982.03;5095176;28;20051;-73
2023/10/29 09:35:00;;;;;;;2.38;1.75;;;;;;;13.24;71.48;97022.75;5096111;28;20085;-73
2023/10/29 09:37:26;;;;;;;2.55;1.80;;;;;;;13.09;71.97;97015.66;5095698;28;20031;-73
2023/10/29 09:39:51;;;;;;;3.70;1.98;;;;;;;13.25;72.22;97041.41;5113975;28;20067;-73
2023/10/29 09:42:18;;;;;;;3.05;1.98;;;;;;;13.31;72.78;97034.81;5113859;28;20101;-74
2023/10/29 09:44:45;;;;;;;3.97;2.80;;;;;;;13.39;73.30;97031.47;5095491;28;20062;-72
2023/10/29 09:47:15;;;;;;;3.35;2.67;;;;;;;13.49;73.47;97019.72;5078651;28;20028;-72
2023/10/29 09:49:41;;;;;;;6.32;4.15;;;;;;;13.48;74.28;97013.50;5072947;28;20419;-73
2023/10/29 09:52:08;;;;;;;13.55;9.98;;;;;;;13.60;74.83;97027.41;5087132;28;20028;-73
2023/10/29 09:54:33;;;;;;;11.27;9.65;;;;;;;13.66;75.35;97030.81;5094886;28;20039;-73
2023/10/29 09:57:00;;;;;;;5.97;5.38;;;;;;;13.70;75.75;97021.81;5082470;28;20047;-73
2023/10/29 09:59:25;;;;;;;4.93;3.95;;;;;;;13.73;75.96;97009.63;5075166;28;20164;-73
2023/10/29 10:01:50;;;;;;;8.77;6.25;;;;;;;13.71;76.25;97011.81;5075052;28;20050;-73
2023/10/29 10:04:16;;;;;;;5.63;4.13;;;;;;;13.74;76.82;97020.16;5092644;28;20479;-72
2023/10/29 10:06:42;;;;;;;4.32;2.95;;;;;;;13.75;77.12;97010.94;5075029;28;20111;-72
2023/10/29 10:09:08;;;;;;;3.35;2.85;;;;;;;13.77;77.17;97022.25;5075007;28;20028;-73
2023/10/29 10:11:33;;;;;;;3.15;2.20;;;;;;;13.76;77.44;97009.84;5074576;28;20441;-72
2023/10/29 10:13:58;;;;;;;5.45;2.30;;;;;;;13.72;77.27;97000.69;5080017;28;20038;-72
2023/10/29 10:16:24;;;;;;;4.88;2.50;;;;;;;13.76;77.41;97004.44;5089282;28;20061;-73
2023/10/29 10:18:57;;;;;;;6.38;2.90;;;;;;;13.78;77.81;96991.41;5094895;28;20040;-73
2023/10/29 10:21:43;;;;;;;3.75;2.50;;;;;;;13.74;77.50;96979.59;5103149;28;20514;-72
2023/10/29 10:24:10;;;;;;;5.38;2.58;;;;;;;13.69;78.22;96982.34;5094780;28;20524;-72
2023/10/29 10:26:37;;;;;;;4.25;2.78;;;;;;;13.69;78.74;96993.19;5113017;28;20054;-72
2023/10/29 10:29:04;;;;;;;8.23;5.18;;;;;;;13.64;78.79;96990.53;5094849;28;20043;-72
2023/10/29 10:31:33;;;;;;;7.35;4.75;;;;;;;13.51;79.60;96972.31;5094486;28;20030;-72
2023/10/29 10:34:18;;;;;;;4.60;3.20;;;;;;;13.47;79.47;97002.97;5094824;28;20055;-73
2023/10/29 10:36:44;;;;;;;5.22;3.85;;;;;;;13.36;80.12;96988.78;5112808;28;20391;-72
2023/10/29 10:39:13;;;;;;;5.75;4.28;;;;;;;13.27;79.98;96960.78;5077584;28;20466;-73
2023/10/29 10:41:42;;;;;;;5.50;3.88;;;;;;;13.35;80.28;96975.56;5112709;28;20082;-72
2023/10/29 10:44:15;;;;;;;4.32;3.08;;;;;;;13.33;80.21;96967.72;5077314;28;20478;-72
2023/10/29 10:46:57;;;;;;;4.05;2.92;;;;;;;13.28;80.41;96970.50;5094311;28;20509;-72
2023/10/29 10:49:23;;;;;;;7.40;3.90;;;;;;;13.24;80.70;96979.47;5095023;28;20027;-70
2023/10/29 10:51:52;;;;;;;4.53;3.60;;;;;;;13.22;80.92;96982.47;5093928;28;20030;-73
2023/10/29 10:54:19;;;;;;;5.20;3.38;;;;;;;13.14;81.58;96985.81;5094245;28;20062;-72
2023/10/29 10:56:45;;;;;;;4.93;3.65;;;;;;;13.09;82.24;96977.81;5094427;28;20039;-73
2023/10/29 10:59:10;;;;;;;5.57;4.00;;;;;;;13.12;82.22;96975.31;5094257;28;20114;-73
2023/10/29 11:01:38;;;;;;;5.65;4.30;;;;;;;13.09;82.74;96965.06;5094045;28;20110;-72
2023/10/29 11:04:04;;;;;;;6.35;4.30;;;;;;;13.12;82.35;96961.78;5093137;28;20036;-72
2023/10/29 11:06:31;;;;;;;3.53;3.10;;;;;;;13.09;82.63;96943.44;5083013;28;20024;-72
2023/10/29 11:08:59;;;;;;;6.78;4.20;;;;;;;13.17;83.05;96947.41;5092335;28;20044;-72
2023/10/29 11:11:38;;;;;;;5.32;3.47;;;;;;;13.21;83.30;96947.63;5057098;28;20016;-72
2023/10/29 11:14:12;;;;;;;4.25;3.22;;;;;;;13.20;83.27;96946.84;5080270;28;20032;-72
2023/10/29 11:16:49;;;;;;;8.27;3.20;;;;;;;13.26;83.74;96956.47;5097944;28;20028;-72
2023/10/29 11:19:33;;;;;;;5.53;3.15;;;;;;;13.23;83.77;96946.25;5076663;28;20386;-72
2023/10/29 11:22:18;;;;;;;6.18;2.88;;;;;;;13.32;83.87;96928.28;5107153;28;20644;-72
2023/10/29 11:24:44;;;;;;;4.18;2.85;;;;;;;13.38;84.19;96916.28;5091174;28;20036;-72
2023/10/29 11:27:41;;;;;;;5.38;2.97;;;;;;;13.43;84.27;96918.91;5073554;28;20438;-72